sensor_id;sensor_type;location;lat;lon;timestamp;pressure;altitude;pressure_sealevel;temperature;humidity
11971;BME280;6045;42.682;23.294;2024-01-30T00:00:28;96586.63;;;1.03;69.01
11971;BME280;6045;42.682;23.294;2024-01-30T00:02:56;96588.16;;;1.05;67.92
11971;BME280;6045;42.682;23.294;2024-01-30T00:05:23;96593.81;;;1.01;67.95
11971;BME280;6045;42.682;23.294;2024-01-30T00:07:50;96591.66;;;0.95;68.52
11971;BME280;6045;42.682;23.294;2024-01-30T00:10:17;96585.31;;;0.97;68.61
11971;BME280;6045;42.682;23.294;2024-01-30T00:12:44;96590.91;;;1.04;69.08
11971;BME280;6045;42.682;23.294;2024-01-30T00:15:11;96581.50;;;1.01;68.18
11971;BME280;6045;42.682;23.294;2024-01-30T00:17:38;96583.38;;;0.99;68.65
11971;BME280;6045;42.682;23.294;2024-01-30T00:20:07;96592.03;;;1.01;68.46
11971;BME280;6045;42.682;23.294;2024-01-30T00:22:35;96590.56;;;1.08;68.27
11971;BME280;6045;42.682;23.294;2024-01-30T00:25:02;96592.69;;;1.14;68.72
11971;BME280;6045;42.682;23.294;2024-01-30T00:27:29;96589.97;;;1.05;68.38
11971;BME280;6045;42.682;23.294;2024-01-30T00:29:56;96586.25;;;1.07;68.46
11971;BME280;6045;42.682;23.294;2024-01-30T00:32:23;96589.38;;;1.01;68.18
11971;BME280;6045;42.682;23.294;2024-01-30T00:34:50;96593.25;;;1.18;69.16
11971;BME280;6045;42.682;23.294;2024-01-30T00:37:18;96582.81;;;1.27;68.39
11971;BME280;6045;42.682;23.294;2024-01-30T00:39:45;96586.00;;;1.10;67.58
11971;BME280;6045;42.682;23.294;2024-01-30T00:42:12;96587.66;;;1.11;67.64
11971;BME280;6045;42.682;23.294;2024-01-30T00:44:39;96584.88;;;1.24;68.14
11971;BME280;6045;42.682;23.294;2024-01-30T00:47:06;96579.25;;;1.28;68.28
11971;BME280;6045;42.682;23.294;2024-01-30T00:49:33;96578.63;;;1.36;68.28
11971;BME280;6045;42.682;23.294;2024-01-30T00:52:00;96583.50;;;1.41;67.35
11971;BME280;6045;42.682;23.294;2024-01-30T00:54:29;96582.03;;;1.48;67.07
11971;BME280;6045;42.682;23.294;2024-01-30T00:56:56;96584.69;;;1.48;66.24
11971;BME280;6045;42.682;23.294;2024-01-30T00:59:23;96580.63;;;1.44;66.93
11971;BME280;6045;42.682;23.294;2024-01-30T01:01:50;96588.53;;;1.44;66.42
11971;BME280;6045;42.682;23.294;2024-01-30T01:04:17;96579.91;;;1.42;66.44
11971;BME280;6045;42.682;23.294;2024-01-30T01:06:44;96583.38;;;1.42;66.60
11971;BME280;6045;42.682;23.294;2024-01-30T01:09:11;96585.53;;;1.48;66.61
11971;BME280;6045;42.682;23.294;2024-01-30T01:11:40;96583.31;;;1.53;66.77
11971;BME280;6045;42.682;23.294;2024-01-30T01:14:06;96585.63;;;1.47;65.96
11971;BME280;6045;42.682;23.294;2024-01-30T01:16:34;96579.50;;;1.57;67.00
11971;BME280;6045;42.682;23.294;2024-01-30T01:19:01;96584.00;;;1.66;66.86
11971;BME280;6045;42.682;23.294;2024-01-30T01:21:28;96578.78;;;1.55;66.22
11971;BME280;6045;42.682;23.294;2024-01-30T01:23:55;96585.84;;;1.55;66.90
11971;BME280;6045;42.682;23.294;2024-01-30T01:26:22;96581.53;;;1.54;67.06
11971;BME280;6045;42.682;23.294;2024-01-30T01:28:51;96582.00;;;1.59;66.73
11971;BME280;6045;42.682;23.294;2024-01-30T01:31:18;96579.59;;;1.56;66.45
11971;BME280;6045;42.682;23.294;2024-01-30T01:33:45;96583.59;;;1.50;65.80
11971;BME280;6045;42.682;23.294;2024-01-30T01:36:13;96582.22;;;1.56;66.04
11971;BME280;6045;42.682;23.294;2024-01-30T01:38:40;96588.25;;;1.58;66.35
11971;BME280;6045;42.682;23.294;2024-01-30T01:41:07;96582.75;;;1.50;66.60
11971;BME280;6045;42.682;23.294;2024-01-30T01:43:34;96584.44;;;1.51;66.32
11971;BME280;6045;42.682;23.294;2024-01-30T01:46:02;96579.97;;;1.51;66.32
11971;BME280;6045;42.682;23.294;2024-01-30T01:48:29;96584.53;;;1.49;66.76
11971;BME280;6045;42.682;23.294;2024-01-30T01:50:57;96580.25;;;1.48;66.43
11971;BME280;6045;42.682;23.294;2024-01-30T01:53:24;96583.84;;;1.47;66.49
11971;BME280;6045;42.682;23.294;2024-01-30T01:55:54;96582.59;;;1.30;65.96
11971;BME280;6045;42.682;23.294;2024-01-30T01:58:21;96586.91;;;1.31;67.36
11971;BME280;6045;42.682;23.294;2024-01-30T02:00:50;96589.78;;;1.28;67.22
11971;BME280;6045;42.682;23.294;2024-01-30T02:03:19;96593.59;;;1.35;67.13
11971;BME280;6045;42.682;23.294;2024-01-30T02:05:49;96587.75;;;1.21;66.47
11971;BME280;6045;42.682;23.294;2024-01-30T02:08:17;96584.84;;;1.03;66.24
11971;BME280;6045;42.682;23.294;2024-01-30T02:10:44;96599.69;;;0.93;66.48
11971;BME280;6045;42.682;23.294;2024-01-30T02:13:11;96597.41;;;0.89;67.47
11971;BME280;6045;42.682;23.294;2024-01-30T02:15:37;96595.16;;;0.73;66.86
11971;BME280;6045;42.682;23.294;2024-01-30T02:18:04;96597.34;;;0.68;67.76
11971;BME280;6045;42.682;23.294;2024-01-30T02:20:37;96603.31;;;0.70;68.15
11971;BME280;6045;42.682;23.294;2024-01-30T02:23:07;96599.97;;;0.68;67.49
11971;BME280;6045;42.682;23.294;2024-01-30T02:25:40;96596.34;;;0.80;67.47
11971;BME280;6045;42.682;23.294;2024-01-30T02:28:09;96592.88;;;0.80;67.37
11971;BME280;6045;42.682;23.294;2024-01-30T02:30:37;96591.00;;;0.71;66.73
11971;BME280;6045;42.682;23.294;2024-01-30T02:33:04;96586.78;;;0.57;66.85
11971;BME280;6045;42.682;23.294;2024-01-30T02:35:31;96587.28;;;0.51;66.92
11971;BME280;6045;42.682;23.294;2024-01-30T02:37:59;96584.16;;;0.57;68.12
11971;BME280;6045;42.682;23.294;2024-01-30T02:40:27;96592.91;;;0.57;68.29
11971;BME280;6045;42.682;23.294;2024-01-30T02:42:57;96592.75;;;0.59;68.61
11971;BME280;6045;42.682;23.294;2024-01-30T02:45:24;96587.28;;;0.62;67.81
11971;BME280;6045;42.682;23.294;2024-01-30T02:47:51;96586.06;;;0.66;67.82
11971;BME280;6045;42.682;23.294;2024-01-30T02:50:19;96583.81;;;0.73;68.92
11971;BME280;6045;42.682;23.294;2024-01-30T02:52:46;96587.84;;;0.77;67.45
11971;BME280;6045;42.682;23.294;2024-01-30T02:55:13;96592.19;;;0.78;67.14
11971;BME280;6045;42.682;23.294;2024-01-30T02:57:44;96588.19;;;0.83;67.16
11971;BME280;6045;42.682;23.294;2024-01-30T03:00:12;96581.50;;;1.01;67.30
11971;BME280;6045;42.682;23.294;2024-01-30T03:02:39;96594.00;;;1.09;66.41
11971;BME280;6045;42.682;23.294;2024-01-30T03:05:07;96584.84;;;1.03;66.71
11971;BME280;6045;42.682;23.294;2024-01-30T03:07:34;96591.28;;;1.10;66.58
11971;BME280;6045;42.682;23.294;2024-01-30T03:10:01;96581.50;;;1.01;65.64
11971;BME280;6045;42.682;23.294;2024-01-30T03:12:28;96577.31;;;0.99;65.60
11971;BME280;6045;42.682;23.294;2024-01-30T03:14:57;96587.66;;;1.11;65.44
11971;BME280;6045;42.682;23.294;2024-01-30T03:17:23;96581.81;;;1.08;65.92
11971;BME280;6045;42.682;23.294;2024-01-30T03:19:53;96582.88;;;1.16;65.82
11971;BME280;6045;42.682;23.294;2024-01-30T03:22:20;96584.28;;;1.20;65.12
11971;BME280;6045;42.682;23.294;2024-01-30T03:24:47;96582.66;;;1.08;65.45
11971;BME280;6045;42.682;23.294;2024-01-30T03:27:14;96582.34;;;0.91;65.50
11971;BME280;6045;42.682;23.294;2024-01-30T03:29:41;96580.22;;;0.85;65.68
11971;BME280;6045;42.682;23.294;2024-01-30T03:32:09;96577.91;;;0.91;66.71
11971;BME280;6045;42.682;23.294;2024-01-30T03:34:36;96572.03;;;0.99;66.52
11971;BME280;6045;42.682;23.294;2024-01-30T03:37:03;96570.59;;;0.95;65.06
11971;BME280;6045;42.682;23.294;2024-01-30T03:39:30;96576.69;;;0.95;65.68
11971;BME280;6045;42.682;23.294;2024-01-30T03:41:57;96575.13;;;1.04;65.59
11971;BME280;6045;42.682;23.294;2024-01-30T03:44:24;96565.66;;;1.12;64.81
11971;BME280;6045;42.682;23.294;2024-01-30T03:46:51;96574.34;;;1.24;64.87
11971;BME280;6045;42.682;23.294;2024-01-30T03:49:19;96568.63;;;1.19;64.51
11971;BME280;6045;42.682;23.294;2024-01-30T03:51:46;96573.66;;;1.22;63.94
11971;BME280;6045;42.682;23.294;2024-01-30T03:54:14;96567.28;;;1.24;63.77
11971;BME280;6045;42.682;23.294;2024-01-30T03:56:41;96566.31;;;1.25;62.91
11971;BME280;6045;42.682;23.294;2024-01-30T03:59:08;96564.28;;;1.29;62.86
11971;BME280;6045;42.682;23.294;2024-01-30T04:01:35;96563.13;;;1.22;62.78
11971;BME280;6045;42.682;23.294;2024-01-30T04:04:01;96560.06;;;1.06;63.47
11971;BME280;6045;42.682;23.294;2024-01-30T04:06:30;96560.59;;;1.20;64.85
11971;BME280;6045;42.682;23.294;2024-01-30T04:08:57;96563.50;;;1.17;63.97
11971;BME280;6045;42.682;23.294;2024-01-30T04:11:24;96559.69;;;1.10;63.68
11971;BME280;6045;42.682;23.294;2024-01-30T04:13:51;96558.59;;;1.13;63.05
11971;BME280;6045;42.682;23.294;2024-01-30T04:16:20;96558.31;;;1.16;62.72
11971;BME280;6045;42.682;23.294;2024-01-30T04:18:48;96560.16;;;1.04;62.02
11971;BME280;6045;42.682;23.294;2024-01-30T04:21:15;96558.13;;;1.08;62.58
11971;BME280;6045;42.682;23.294;2024-01-30T04:23:43;96561.75;;;0.96;61.96
11971;BME280;6045;42.682;23.294;2024-01-30T04:26:11;96556.47;;;0.96;62.55
11971;BME280;6045;42.682;23.294;2024-01-30T04:28:38;96564.84;;;1.01;62.25
11971;BME280;6045;42.682;23.294;2024-01-30T04:31:05;96569.94;;;1.13;62.60
11971;BME280;6045;42.682;23.294;2024-01-30T04:33:32;96573.88;;;1.19;62.35
11971;BME280;6045;42.682;23.294;2024-01-30T04:35:59;96571.38;;;1.17;63.16
11971;BME280;6045;42.682;23.294;2024-01-30T04:38:26;96575.91;;;1.26;63.18
11971;BME280;6045;42.682;23.294;2024-01-30T04:40:54;96565.63;;;1.44;63.72
11971;BME280;6045;42.682;23.294;2024-01-30T04:43:21;96569.88;;;1.35;62.74
11971;BME280;6045;42.682;23.294;2024-01-30T04:45:49;96577.31;;;1.30;63.31
11971;BME280;6045;42.682;23.294;2024-01-30T04:48:16;96580.66;;;1.32;62.47
11971;BME280;6045;42.682;23.294;2024-01-30T04:50:43;96579.06;;;1.09;62.26
11971;BME280;6045;42.682;23.294;2024-01-30T04:53:10;96585.16;;;1.10;62.93
11971;BME280;6045;42.682;23.294;2024-01-30T04:55:37;96593.44;;;1.05;62.80
11971;BME280;6045;42.682;23.294;2024-01-30T04:58:05;96595.22;;;1.05;62.96
11971;BME280;6045;42.682;23.294;2024-01-30T05:00:32;96591.28;;;1.10;62.88
11971;BME280;6045;42.682;23.294;2024-01-30T05:02:59;96595.34;;;0.92;62.83
11971;BME280;6045;42.682;23.294;2024-01-30T05:05:26;96599.19;;;0.99;63.63
11971;BME280;6045;42.682;23.294;2024-01-30T05:07:53;96604.84;;;0.84;63.17
11971;BME280;6045;42.682;23.294;2024-01-30T05:10:20;96596.34;;;0.80;63.41
11971;BME280;6045;42.682;23.294;2024-01-30T05:12:47;96598.63;;;0.74;64.09
11971;BME280;6045;42.682;23.294;2024-01-30T05:15:15;96599.69;;;0.71;64.58
11971;BME280;6045;42.682;23.294;2024-01-30T05:17:42;96597.19;;;0.69;64.33
11971;BME280;6045;42.682;23.294;2024-01-30T05:20:10;96601.84;;;0.66;64.78
11971;BME280;6045;42.682;23.294;2024-01-30T05:22:37;96603.06;;;0.62;65.18
11971;BME280;6045;42.682;23.294;2024-01-30T05:25:10;96601.88;;;0.44;65.67
11971;BME280;6045;42.682;23.294;2024-01-30T05:27:37;96609.97;;;0.52;66.58
11971;BME280;6045;42.682;23.294;2024-01-30T05:30:05;96599.81;;;0.69;72.09
11971;BME280;6045;42.682;23.294;2024-01-30T05:32:34;96597.94;;;0.60;67.83
11971;BME280;6045;42.682;23.294;2024-01-30T05:35:01;96599.22;;;0.77;66.59
11971;BME280;6045;42.682;23.294;2024-01-30T05:37:28;96602.97;;;0.63;66.39
11971;BME280;6045;42.682;23.294;2024-01-30T05:39:55;96604.84;;;0.61;66.03
11971;BME280;6045;42.682;23.294;2024-01-30T05:42:23;96602.53;;;1.01;80.64
11971;BME280;6045;42.682;23.294;2024-01-30T05:44:50;96588.28;;;4.43;100.00
11971;BME280;6045;42.682;23.294;2024-01-30T05:47:17;96583.44;;;5.29;100.00
11971;BME280;6045;42.682;23.294;2024-01-30T05:49:45;96599.50;;;3.79;79.92
11971;BME280;6045;42.682;23.294;2024-01-30T05:52:12;96596.56;;;3.34;69.60
11971;BME280;6045;42.682;23.294;2024-01-30T05:54:40;96600.09;;;2.95;62.30
11971;BME280;6045;42.682;23.294;2024-01-30T05:57:07;96595.44;;;2.68;61.19
11971;BME280;6045;42.682;23.294;2024-01-30T05:59:34;96599.34;;;2.44;60.04
11971;BME280;6045;42.682;23.294;2024-01-30T06:02:01;96595.75;;;2.24;60.81
11971;BME280;6045;42.682;23.294;2024-01-30T06:04:28;96595.44;;;2.18;59.96
11971;BME280;6045;42.682;23.294;2024-01-30T06:06:57;96600.53;;;2.10;60.18
11971;BME280;6045;42.682;23.294;2024-01-30T06:09:27;96601.75;;;1.85;60.33
11971;BME280;6045;42.682;23.294;2024-01-30T06:11:54;96603.47;;;1.75;60.92
11971;BME280;6045;42.682;23.294;2024-01-30T06:14:21;96601.13;;;1.61;61.47
11971;BME280;6045;42.682;23.294;2024-01-30T06:16:48;96610.56;;;1.43;62.33
11971;BME280;6045;42.682;23.294;2024-01-30T06:19:14;96609.25;;;1.69;69.42
11971;BME280;6045;42.682;23.294;2024-01-30T06:21:41;96607.78;;;2.68;66.62
11971;BME280;6045;42.682;23.294;2024-01-30T06:24:10;96594.44;;;4.24;61.26
11971;BME280;6045;42.682;23.294;2024-01-30T06:26:36;96602.94;;;5.56;52.04
11971;BME280;6045;42.682;23.294;2024-01-30T06:29:03;96602.53;;;6.64;48.34
11971;BME280;6045;42.682;23.294;2024-01-30T06:31:30;96596.31;;;7.65;46.26
11971;BME280;6045;42.682;23.294;2024-01-30T06:33:57;96592.72;;;7.98;43.25
11971;BME280;6045;42.682;23.294;2024-01-30T06:36:24;96597.19;;;8.62;41.21
11971;BME280;6045;42.682;23.294;2024-01-30T06:38:53;96595.84;;;9.29;38.86
11971;BME280;6045;42.682;23.294;2024-01-30T06:41:22;96591.41;;;9.14;37.45
11971;BME280;6045;42.682;23.294;2024-01-30T06:43:49;96603.19;;;8.24;37.89
11971;BME280;6045;42.682;23.294;2024-01-30T06:46:16;96594.06;;;8.43;38.33
11971;BME280;6045;42.682;23.294;2024-01-30T06:48:43;96593.09;;;9.76;37.48
11971;BME280;6045;42.682;23.294;2024-01-30T06:51:10;96591.97;;;10.61;37.22
11971;BME280;6045;42.682;23.294;2024-01-30T06:53:37;96593.31;;;10.94;33.70
11971;BME280;6045;42.682;23.294;2024-01-30T06:56:05;96596.38;;;11.21;33.55
11971;BME280;6045;42.682;23.294;2024-01-30T06:58:34;96600.13;;;11.26;34.15
11971;BME280;6045;42.682;23.294;2024-01-30T07:01:00;96594.25;;;12.17;32.16
11971;BME280;6045;42.682;23.294;2024-01-30T07:03:27;96599.91;;;12.71;31.89
11971;BME280;6045;42.682;23.294;2024-01-30T07:05:54;96601.41;;;13.35;30.65
11971;BME280;6045;42.682;23.294;2024-01-30T07:08:21;96599.03;;;13.60;29.32
11971;BME280;6045;42.682;23.294;2024-01-30T07:10:49;96608.31;;;13.98;28.95
11971;BME280;6045;42.682;23.294;2024-01-30T07:13:16;96598.31;;;13.86;28.09
11971;BME280;6045;42.682;23.294;2024-01-30T07:15:44;96600.38;;;13.84;28.78
11971;BME280;6045;42.682;23.294;2024-01-30T07:18:11;96591.47;;;14.50;27.44
11971;BME280;6045;42.682;23.294;2024-01-30T07:20:39;96600.19;;;15.04;26.58
11971;BME280;6045;42.682;23.294;2024-01-30T07:23:11;96608.25;;;15.04;25.86
11971;BME280;6045;42.682;23.294;2024-01-30T07:25:39;96604.28;;;15.27;26.81
11971;BME280;6045;42.682;23.294;2024-01-30T07:28:07;96600.94;;;15.51;26.15
11971;BME280;6045;42.682;23.294;2024-01-30T07:30:34;96603.88;;;14.84;26.89
11971;BME280;6045;42.682;23.294;2024-01-30T07:33:03;96604.28;;;14.35;26.39
11971;BME280;6045;42.682;23.294;2024-01-30T07:35:30;96601.00;;;13.38;26.87
11971;BME280;6045;42.682;23.294;2024-01-30T07:37:57;96599.63;;;11.81;28.52
11971;BME280;6045;42.682;23.294;2024-01-30T07:40:24;96600.47;;;11.52;29.75
11971;BME280;6045;42.682;23.294;2024-01-30T07:42:52;96605.53;;;10.74;30.48
11971;BME280;6045;42.682;23.294;2024-01-30T07:45:19;96596.81;;;10.20;31.35
11971;BME280;6045;42.682;23.294;2024-01-30T07:47:48;96599.13;;;11.42;30.65
11971;BME280;6045;42.682;23.294;2024-01-30T07:50:16;96587.53;;;12.49;29.80
11971;BME280;6045;42.682;23.294;2024-01-30T07:52:44;96589.09;;;13.13;28.62
11971;BME280;6045;42.682;23.294;2024-01-30T07:55:13;96589.34;;;12.97;28.30
11971;BME280;6045;42.682;23.294;2024-01-30T07:57:40;96592.88;;;11.85;28.68
11971;BME280;6045;42.682;23.294;2024-01-30T08:00:09;96597.44;;;12.06;29.30
11971;BME280;6045;42.682;23.294;2024-01-30T08:02:36;96590.72;;;12.86;28.02
11971;BME280;6045;42.682;23.294;2024-01-30T08:05:04;96591.63;;;12.45;29.70
11971;BME280;6045;42.682;23.294;2024-01-30T08:07:32;96586.38;;;12.85;28.89
11971;BME280;6045;42.682;23.294;2024-01-30T08:09:59;96585.94;;;13.44;27.85
11971;BME280;6045;42.682;23.294;2024-01-30T08:12:26;96589.66;;;13.97;28.90
11971;BME280;6045;42.682;23.294;2024-01-30T08:14:53;96590.13;;;14.07;26.90
11971;BME280;6045;42.682;23.294;2024-01-30T08:17:20;96584.03;;;14.59;25.78
11971;BME280;6045;42.682;23.294;2024-01-30T08:19:47;96587.25;;;14.08;26.58
11971;BME280;6045;42.682;23.294;2024-01-30T08:22:14;96586.81;;;14.18;26.94
11971;BME280;6045;42.682;23.294;2024-01-30T08:24:42;96594.38;;;13.75;26.53
11971;BME280;6045;42.682;23.294;2024-01-30T08:27:09;96598.13;;;12.35;28.67
11971;BME280;6045;42.682;23.294;2024-01-30T08:29:37;96591.06;;;12.77;28.55
11971;BME280;6045;42.682;23.294;2024-01-30T08:32:08;96585.78;;;13.11;28.25
11971;BME280;6045;42.682;23.294;2024-01-30T08:34:35;96593.34;;;13.83;26.81
11971;BME280;6045;42.682;23.294;2024-01-30T08:37:02;96592.09;;;13.79;26.89
11971;BME280;6045;42.682;23.294;2024-01-30T08:39:29;96600.94;;;14.26;26.64
11971;BME280;6045;42.682;23.294;2024-01-30T08:41:58;96603.19;;;14.23;27.26
11971;BME280;6045;42.682;23.294;2024-01-30T08:44:25;96596.34;;;14.14;26.49
11971;BME280;6045;42.682;23.294;2024-01-30T08:46:52;96599.09;;;13.73;27.40
11971;BME280;6045;42.682;23.294;2024-01-30T08:49:20;96593.94;;;12.26;28.22
11971;BME280;6045;42.682;23.294;2024-01-30T08:51:47;96606.13;;;10.84;30.14
11971;BME280;6045;42.682;23.294;2024-01-30T08:54:14;96603.00;;;10.81;30.51
11971;BME280;6045;42.682;23.294;2024-01-30T08:56:41;96608.91;;;11.35;31.82
11971;BME280;6045;42.682;23.294;2024-01-30T08:59:09;96615.19;;;11.13;30.78
11971;BME280;6045;42.682;23.294;2024-01-30T09:01:36;96614.56;;;10.13;31.72
11971;BME280;6045;42.682;23.294;2024-01-30T09:04:04;96626.44;;;9.49;32.92
11971;BME280;6045;42.682;23.294;2024-01-30T09:06:31;96620.31;;;9.72;34.19
11971;BME280;6045;42.682;23.294;2024-01-30T09:08:58;96619.19;;;10.42;33.56
11971;BME280;6045;42.682;23.294;2024-01-30T09:11:25;96614.44;;;10.07;33.17
11971;BME280;6045;42.682;23.294;2024-01-30T09:13:52;96613.16;;;9.33;33.99
11971;BME280;6045;42.682;23.294;2024-01-30T09:16:20;96614.22;;;8.45;35.85
11971;BME280;6045;42.682;23.294;2024-01-30T09:18:47;96619.00;;;8.25;37.27
11971;BME280;6045;42.682;23.294;2024-01-30T09:21:15;96615.88;;;7.56;38.72
11971;BME280;6045;42.682;23.294;2024-01-30T09:23:42;96608.59;;;7.58;39.48
11971;BME280;6045;42.682;23.294;2024-01-30T09:26:08;96610.22;;;8.33;38.08
11971;BME280;6045;42.682;23.294;2024-01-30T09:28:35;96596.69;;;9.22;36.61
11971;BME280;6045;42.682;23.294;2024-01-30T09:31:02;96594.66;;;9.32;36.08
11971;BME280;6045;42.682;23.294;2024-01-30T09:33:31;96595.72;;;9.23;37.57
11971;BME280;6045;42.682;23.294;2024-01-30T09:35:58;96601.63;;;10.25;35.65
11971;BME280;6045;42.682;23.294;2024-01-30T09:38:23;96592.91;;;11.56;32.28
11971;BME280;6045;42.682;23.294;2024-01-30T09:40:54;96588.03;;;11.01;32.24
11971;BME280;6045;42.682;23.294;2024-01-30T09:43:23;96591.63;;;10.93;33.25
11971;BME280;6045;42.682;23.294;2024-01-30T09:45:50;96590.00;;;11.87;32.03
11971;BME280;6045;42.682;23.294;2024-01-30T09:48:17;96588.13;;;12.72;30.85
11971;BME280;6045;42.682;23.294;2024-01-30T09:50:46;96589.63;;;12.53;30.14
11971;BME280;6045;42.682;23.294;2024-01-30T09:53:13;96585.41;;;12.44;30.63
11971;BME280;6045;42.682;23.294;2024-01-30T09:55:43;96586.47;;;13.26;29.60
11971;BME280;6045;42.682;23.294;2024-01-30T09:58:11;96580.13;;;13.88;28.25
11971;BME280;6045;42.682;23.294;2024-01-30T10:00:38;96573.69;;;14.69;27.77
11971;BME280;6045;42.682;23.294;2024-01-30T10:03:05;96573.25;;;14.65;27.53
11971;BME280;6045;42.682;23.294;2024-01-30T10:05:33;96573.66;;;14.36;27.92
11971;BME280;6045;42.682;23.294;2024-01-30T10:08:06;96576.56;;;15.00;26.67
11971;BME280;6045;42.682;23.294;2024-01-30T10:10:33;96574.00;;;15.31;26.24
11971;BME280;6045;42.682;23.294;2024-01-30T10:13:01;96561.28;;;15.64;26.74
11971;BME280;6045;42.682;23.294;2024-01-30T10:15:28;96555.63;;;15.79;26.32
11971;BME280;6045;42.682;23.294;2024-01-30T10:17:55;96553.22;;;16.02;25.44
11971;BME280;6045;42.682;23.294;2024-01-30T10:20:24;96556.22;;;16.19;26.25
11971;BME280;6045;42.682;23.294;2024-01-30T10:22:54;96562.47;;;15.04;25.79
11971;BME280;6045;42.682;23.294;2024-01-30T10:25:23;96568.38;;;13.41;27.88
11971;BME280;6045;42.682;23.294;2024-01-30T10:27:52;96574.63;;;12.59;29.79
11971;BME280;6045;42.682;23.294;2024-01-30T10:30:20;96562.50;;;12.42;29.42
11971;BME280;6045;42.682;23.294;2024-01-30T10:32:47;96559.22;;;12.95;28.45
11971;BME280;6045;42.682;23.294;2024-01-30T10:35:15;96563.41;;;12.76;29.62
11971;BME280;6045;42.682;23.294;2024-01-30T10:37:57;96565.63;;;11.82;30.32
11971;BME280;6045;42.682;23.294;2024-01-30T10:40:28;96570.19;;;11.52;30.38
11971;BME280;6045;42.682;23.294;2024-01-30T10:42:55;96569.31;;;11.16;30.79
11971;BME280;6045;42.682;23.294;2024-01-30T10:45:23;96568.22;;;10.81;31.43
11971;BME280;6045;42.682;23.294;2024-01-30T10:47:55;96569.69;;;11.13;32.24
11971;BME280;6045;42.682;23.294;2024-01-30T10:50:24;96555.78;;;11.68;31.29
11971;BME280;6045;42.682;23.294;2024-01-30T10:52:52;96551.88;;;13.10;28.92
11971;BME280;6045;42.682;23.294;2024-01-30T10:55:21;96550.59;;;13.40;28.82
11971;BME280;6045;42.682;23.294;2024-01-30T10:57:50;96536.56;;;13.45;29.14
11971;BME280;6045;42.682;23.294;2024-01-30T11:00:19;96543.38;;;14.27;26.64
11971;BME280;6045;42.682;23.294;2024-01-30T11:02:49;96539.84;;;15.19;26.51
11971;BME280;6045;42.682;23.294;2024-01-30T11:05:23;96534.06;;;15.15;26.30
11971;BME280;6045;42.682;23.294;2024-01-30T11:07:53;96532.13;;;15.42;25.61
11971;BME280;6045;42.682;23.294;2024-01-30T11:10:20;96526.28;;;15.58;25.78
11971;BME280;6045;42.682;23.294;2024-01-30T11:12:54;96526.03;;;14.63;26.15
11971;BME280;6045;42.682;23.294;2024-01-30T11:15:24;96527.31;;;14.34;27.41
11971;BME280;6045;42.682;23.294;2024-01-30T11:17:52;96521.25;;;14.19;27.42
11971;BME280;6045;42.682;23.294;2024-01-30T11:20:21;96522.44;;;13.23;27.81
11971;BME280;6045;42.682;23.294;2024-01-30T11:22:51;96526.66;;;13.04;28.98
11971;BME280;6045;42.682;23.294;2024-01-30T11:25:20;96523.97;;;13.04;29.15
11971;BME280;6045;42.682;23.294;2024-01-30T11:27:51;96525.25;;;12.04;29.62
11971;BME280;6045;42.682;23.294;2024-01-30T11:30:23;96524.16;;;11.42;30.47
11971;BME280;6045;42.682;23.294;2024-01-30T11:33:04;96528.63;;;10.76;32.38
11971;BME280;6045;42.682;23.294;2024-01-30T11:35:32;96524.50;;;11.89;31.21
11971;BME280;6045;42.682;23.294;2024-01-30T11:38:00;96517.13;;;13.43;29.42
11971;BME280;6045;42.682;23.294;2024-01-30T11:40:28;96523.16;;;14.51;27.01
11971;BME280;6045;42.682;23.294;2024-01-30T11:42:58;96528.66;;;13.30;27.57
11971;BME280;6045;42.682;23.294;2024-01-30T11:45:26;96520.28;;;12.50;28.98
11971;BME280;6045;42.682;23.294;2024-01-30T11:47:54;96523.72;;;11.74;29.72
11971;BME280;6045;42.682;23.294;2024-01-30T11:50:21;96520.78;;;11.54;30.55
11971;BME280;6045;42.682;23.294;2024-01-30T11:52:48;96524.94;;;10.77;32.09
11971;BME280;6045;42.682;23.294;2024-01-30T11:55:15;96528.59;;;10.10;33.02
11971;BME280;6045;42.682;23.294;2024-01-30T11:57:42;96524.16;;;9.80;33.56
11971;BME280;6045;42.682;23.294;2024-01-30T12:00:16;96516.97;;;10.40;33.83
11971;BME280;6045;42.682;23.294;2024-01-30T12:02:44;96504.78;;;10.23;32.64
11971;BME280;6045;42.682;23.294;2024-01-30T12:05:15;96494.59;;;11.35;31.37
11971;BME280;6045;42.682;23.294;2024-01-30T12:07:44;96486.78;;;12.40;30.12
11971;BME280;6045;42.682;23.294;2024-01-30T12:10:12;96485.81;;;13.09;29.80
11971;BME280;6045;42.682;23.294;2024-01-30T12:12:41;96477.75;;;13.69;29.45
11971;BME280;6045;42.682;23.294;2024-01-30T12:15:10;96481.97;;;14.31;27.87
11971;BME280;6045;42.682;23.294;2024-01-30T12:17:39;96480.25;;;13.78;28.28
11971;BME280;6045;42.682;23.294;2024-01-30T12:20:09;96471.59;;;14.28;28.48
11971;BME280;6045;42.682;23.294;2024-01-30T12:22:37;96474.22;;;13.76;28.62
11971;BME280;6045;42.682;23.294;2024-01-30T12:25:07;96470.53;;;13.77;27.75
11971;BME280;6045;42.682;23.294;2024-01-30T12:27:34;96465.81;;;13.92;28.25
11971;BME280;6045;42.682;23.294;2024-01-30T12:30:02;96457.16;;;14.35;27.75
11971;BME280;6045;42.682;23.294;2024-01-30T12:32:31;96463.97;;;14.51;39.45
11971;BME280;6045;42.682;23.294;2024-01-30T12:35:00;96463.31;;;14.23;33.50
11971;BME280;6045;42.682;23.294;2024-01-30T12:37:29;96465.03;;;14.44;34.52
11971;BME280;6045;42.682;23.294;2024-01-30T12:39:56;96460.22;;;15.80;34.51
11971;BME280;6045;42.682;23.294;2024-01-30T12:42:23;96456.56;;;16.24;32.84
11971;BME280;6045;42.682;23.294;2024-01-30T12:44:50;96454.66;;;15.31;32.74
11971;BME280;6045;42.682;23.294;2024-01-30T12:47:21;96457.44;;;15.04;31.35
11971;BME280;6045;42.682;23.294;2024-01-30T12:50:01;96458.47;;;15.03;29.70
11971;BME280;6045;42.682;23.294;2024-01-30T12:52:28;96450.91;;;16.07;31.63
11971;BME280;6045;42.682;23.294;2024-01-30T12:54:55;96450.16;;;16.92;28.78
11971;BME280;6045;42.682;23.294;2024-01-30T12:57:22;96441.53;;;16.84;29.54
11971;BME280;6045;42.682;23.294;2024-01-30T12:59:59;96441.03;;;17.59;29.58
11971;BME280;6045;42.682;23.294;2024-01-30T13:02:39;96435.19;;;17.92;26.82
11971;BME280;6045;42.682;23.294;2024-01-30T13:05:09;96436.56;;;18.36;25.80
11971;BME280;6045;42.682;23.294;2024-01-30T13:07:43;96433.72;;;18.31;25.33